createdAt,value
2018-10-18T00:00:58.651Z,0.00
2018-10-18T00:01:58.664Z,0.00
2018-10-18T00:02:58.610Z,0.00
2018-10-18T00:03:58.602Z,0.00
2018-10-18T00:04:58.593Z,0.00
2018-10-18T00:05:58.641Z,0.00
2018-10-18T00:06:58.567Z,0.00
2018-10-18T00:09:43.517Z,0.00
2018-10-18T00:10:07.263Z,0.00
2018-10-18T00:12:45.225Z,0.00
2018-10-18T00:13:15.952Z,0.00
2018-10-18T00:14:15.960Z,0.00
2018-10-18T00:15:15.924Z,0.00
2018-10-18T00:16:15.933Z,0.00
2018-10-18T00:17:15.900Z,0.00
2018-10-18T00:18:15.994Z,0.00
2018-10-18T00:19:15.879Z,0.00
2018-10-18T00:20:15.916Z,0.00
2018-10-18T00:21:15.876Z,0.00
2018-10-18T00:22:15.843Z,0.00
2018-10-18T00:23:15.834Z,0.00
2018-10-18T00:24:16.018Z,0.00
2018-10-18T00:25:15.814Z,0.00
2018-10-18T00:26:15.880Z,0.00
2018-10-18T00:27:15.786Z,0.00
2018-10-18T00:28:15.774Z,0.00
2018-10-18T00:29:15.764Z,0.00
2018-10-18T00:30:15.855Z,0.00
2018-10-18T00:31:15.761Z,0.00
2018-10-18T00:32:15.841Z,0.00
2018-10-18T00:33:15.729Z,0.00
2018-10-18T00:34:15.709Z,0.00
2018-10-18T00:35:15.701Z,0.00
2018-10-18T00:36:15.738Z,0.00
2018-10-18T00:37:15.674Z,0.00
2018-10-18T00:38:15.758Z,0.00
2018-10-18T00:39:15.650Z,0.00
2018-10-18T00:40:15.639Z,0.00
2018-10-18T00:41:15.645Z,0.00
2018-10-18T00:42:15.747Z,0.00
2018-10-18T00:43:15.613Z,0.00
2018-10-18T00:44:15.648Z,0.00
2018-10-18T00:45:15.583Z,0.00
2018-10-18T00:46:15.585Z,0.00
2018-10-18T00:47:15.560Z,0.00
2018-10-18T00:48:15.634Z,0.00
2018-10-18T00:49:15.538Z,0.00
2018-10-18T00:50:15.634Z,0.00
2018-10-18T00:51:15.546Z,0.00
2018-10-18T00:52:15.507Z,0.00
2018-10-18T00:53:15.494Z,0.00
2018-10-18T00:54:15.556Z,0.00
2018-10-18T00:55:15.473Z,0.00
2018-10-18T00:56:15.731Z,0.00
2018-10-18T00:57:15.449Z,0.00
2018-10-18T00:58:15.439Z,0.00
2018-10-18T00:59:15.426Z,0.00
2018-10-18T01:00:15.517Z,0.00
2018-10-18T01:01:15.416Z,0.00
2018-10-18T01:02:15.469Z,0.00
2018-10-18T01:05:00.337Z,0.00
2018-10-18T01:05:24.099Z,0.00
2018-10-18T01:06:24.097Z,0.00
2018-10-18T01:07:24.067Z,0.00
2018-10-18T01:08:24.047Z,0.00
2018-10-18T01:09:24.046Z,0.00
2018-10-18T01:10:24.039Z,0.00
2018-10-18T01:11:24.016Z,0.00
2018-10-18T01:12:24.217Z,0.00
2018-10-18T01:13:23.994Z,0.00
2018-10-18T01:14:23.981Z,0.00
2018-10-18T01:17:41.644Z,0.00
2018-10-18T01:18:41.388Z,0.00
2018-10-18T01:19:41.366Z,0.00
2018-10-18T01:20:41.357Z,0.00
2018-10-18T01:21:41.345Z,0.00
2018-10-18T01:22:41.340Z,0.00
2018-10-18T01:23:41.320Z,0.00
2018-10-18T01:24:41.311Z,0.00
2018-10-18T01:25:41.299Z,0.00
2018-10-18T01:26:41.290Z,0.00
2018-10-18T01:27:41.286Z,0.00
2018-10-18T01:28:41.265Z,0.00
2018-10-18T01:29:41.255Z,0.00
2018-10-18T01:30:41.246Z,0.00
2018-10-18T01:31:41.235Z,0.00
2018-10-18T01:32:41.233Z,0.00
2018-10-18T01:33:41.210Z,0.00
2018-10-18T01:34:41.199Z,0.00
2018-10-18T01:35:41.190Z,0.00
2018-10-18T01:36:41.186Z,0.00
2018-10-18T01:37:41.178Z,0.00
2018-10-18T01:38:41.164Z,0.00
2018-10-18T01:39:41.143Z,0.00
2018-10-18T01:40:41.134Z,0.00
2018-10-18T01:41:41.124Z,0.00
2018-10-18T01:42:41.127Z,0.00
2018-10-18T01:43:41.123Z,0.00
2018-10-18T01:44:41.089Z,0.00
2018-10-18T01:45:41.077Z,0.00
2018-10-18T01:46:41.068Z,0.00
2018-10-18T01:47:41.066Z,0.00
2018-10-18T01:48:41.045Z,0.00
2018-10-18T01:49:41.032Z,0.00
2018-10-18T01:50:41.023Z,0.00
2018-10-18T01:51:41.009Z,0.00
2018-10-18T01:52:41.009Z,0.00
2018-10-18T01:53:40.995Z,0.00
2018-10-18T01:54:40.983Z,0.00
2018-10-18T01:55:40.969Z,0.00
2018-10-18T01:56:40.954Z,0.00
2018-10-18T01:57:40.961Z,0.00
2018-10-18T01:58:40.931Z,0.00
2018-10-18T01:59:40.920Z,0.00
2018-10-18T02:00:40.929Z,0.00
2018-10-18T02:01:40.907Z,0.00
2018-10-18T02:02:40.886Z,0.00
2018-10-18T02:03:40.887Z,0.00
2018-10-18T02:04:40.866Z,0.00
2018-10-18T02:05:40.853Z,0.00
2018-10-18T02:06:40.844Z,0.00
2018-10-18T02:07:40.842Z,0.00
2018-10-18T02:08:40.855Z,0.00
2018-10-18T02:09:40.810Z,0.00
2018-10-18T02:10:40.800Z,0.00
2018-10-18T02:11:40.786Z,0.00
2018-10-18T02:12:40.794Z,0.00
2018-10-18T02:13:40.872Z,0.00
2018-10-18T02:14:40.753Z,0.00
2018-10-18T02:15:40.743Z,0.00
2018-10-18T02:16:40.731Z,0.00
2018-10-18T02:17:40.721Z,0.00
2018-10-18T02:18:40.722Z,0.00
2018-10-18T02:19:40.697Z,0.00
2018-10-18T02:20:40.691Z,0.00
2018-10-18T02:21:40.678Z,0.00
2018-10-18T02:22:40.665Z,0.00
2018-10-18T02:23:40.666Z,0.00
2018-10-18T02:24:40.645Z,0.00
2018-10-18T02:25:40.651Z,0.00
2018-10-18T02:26:40.621Z,0.00
2018-10-18T02:27:40.609Z,0.00
2018-10-18T02:28:40.613Z,0.00
2018-10-18T02:29:40.589Z,0.00
2018-10-18T02:30:40.583Z,0.00
2018-10-18T02:31:40.574Z,0.00
2018-10-18T02:32:40.567Z,0.00
2018-10-18T02:33:40.563Z,0.00
2018-10-18T02:34:40.534Z,0.00
2018-10-18T02:35:40.526Z,0.00
2018-10-18T02:36:40.508Z,0.00
2018-10-18T02:37:40.504Z,0.00
2018-10-18T02:40:13.952Z,0.00
2018-10-18T02:40:49.181Z,0.00
2018-10-18T02:41:49.181Z,0.00
2018-10-18T02:42:49.184Z,0.00
2018-10-18T02:43:49.158Z,0.00
2018-10-18T02:44:49.138Z,0.00
2018-10-18T02:47:22.088Z,0.00
2018-10-18T02:49:42.812Z,0.00
2018-10-18T02:50:06.547Z,0.00
2018-10-18T02:51:06.532Z,0.00
2018-10-18T02:55:57.432Z,0.00
2018-10-18T02:56:32.656Z,0.00
2018-10-18T02:57:32.640Z,0.00
2018-10-18T02:58:32.644Z,0.00
2018-10-18T02:59:32.623Z,0.00
2018-10-18T03:00:32.611Z,0.00
2018-10-18T03:01:32.611Z,0.00
2018-10-18T03:02:32.585Z,0.00
2018-10-18T03:03:32.591Z,0.00
2018-10-18T03:04:32.562Z,0.00
2018-10-18T03:05:32.548Z,0.00
2018-10-18T03:06:32.538Z,0.00
2018-10-18T03:07:32.526Z,0.00
2018-10-18T03:08:32.527Z,0.00
2018-10-18T03:09:32.501Z,0.00
2018-10-18T03:10:32.490Z,0.00
2018-10-18T03:11:32.476Z,0.00
2018-10-18T03:12:32.472Z,0.00
2018-10-18T03:13:32.474Z,0.00
2018-10-18T03:14:32.445Z,0.00
2018-10-18T03:15:32.434Z,0.00
2018-10-18T03:16:32.429Z,0.00
2018-10-18T03:17:32.414Z,0.00
2018-10-18T03:18:32.414Z,0.00
2018-10-18T03:19:32.390Z,0.00
2018-10-18T03:20:32.384Z,0.00
2018-10-18T03:24:14.884Z,0.00
2018-10-18T03:26:35.014Z,0.00
2018-10-18T03:26:58.770Z,0.00
2018-10-18T03:27:58.771Z,0.00
2018-10-18T03:28:58.779Z,0.00
2018-10-18T03:29:58.753Z,0.00
2018-10-18T03:30:58.736Z,0.00
2018-10-18T03:31:58.715Z,0.00
2018-10-18T03:32:58.701Z,0.00
2018-10-18T03:33:58.744Z,0.00
2018-10-18T03:34:58.682Z,0.00
2018-10-18T03:35:58.684Z,0.00
2018-10-18T03:36:58.670Z,0.00
2018-10-18T03:37:58.654Z,0.00
2018-10-18T03:38:58.661Z,0.00
2018-10-18T03:39:58.641Z,0.00
2018-10-18T03:40:58.619Z,0.00
2018-10-18T03:41:58.630Z,0.00
2018-10-18T03:42:58.606Z,0.00
2018-10-18T03:43:58.596Z,0.00
2018-10-18T03:47:16.295Z,0.00
2018-10-18T03:48:16.365Z,0.00
2018-10-18T03:49:16.263Z,0.00
2018-10-18T03:50:16.245Z,0.00
2018-10-18T03:51:16.228Z,0.00
2018-10-18T03:52:16.219Z,0.00
2018-10-18T03:53:16.204Z,0.00
2018-10-18T03:58:15.066Z,0.00
2018-10-18T03:58:42.283Z,0.00
2018-10-18T04:01:31.749Z,0.00
2018-10-18T04:01:50.992Z,0.00
2018-10-18T04:02:50.979Z,0.00
2018-10-18T04:03:50.961Z,0.00
2018-10-18T04:04:50.979Z,0.00
2018-10-18T04:05:50.937Z,0.00
2018-10-18T04:06:50.926Z,0.00
2018-10-18T04:07:50.917Z,0.00
2018-10-18T04:08:50.903Z,0.00
2018-10-18T04:09:50.912Z,0.00
2018-10-18T04:10:50.883Z,0.00
2018-10-18T04:11:50.865Z,0.00
2018-10-18T04:12:50.924Z,0.00
2018-10-18T04:13:50.842Z,0.00
2018-10-18T04:14:50.847Z,0.00
2018-10-18T04:15:50.820Z,0.00
2018-10-18T04:16:50.809Z,0.00
2018-10-18T04:17:50.840Z,0.00
2018-10-18T04:18:50.782Z,0.00
2018-10-18T04:19:50.787Z,0.00
2018-10-18T04:20:50.762Z,0.00
2018-10-18T04:21:50.761Z,0.00
2018-10-18T04:22:50.746Z,0.00
2018-10-18T04:23:50.732Z,0.00
2018-10-18T04:24:50.728Z,0.00
2018-10-18T04:25:50.711Z,0.00
2018-10-18T04:26:50.689Z,0.00
2018-10-18T04:27:50.680Z,0.00
2018-10-18T04:28:50.668Z,0.00
2018-10-18T04:29:50.668Z,0.00
2018-10-18T04:30:50.653Z,0.00
2018-10-18T04:31:50.635Z,0.00
2018-10-18T04:32:50.652Z,0.00
2018-10-18T04:33:50.613Z,0.00
2018-10-18T04:34:50.608Z,0.00
2018-10-18T04:35:50.585Z,0.00
2018-10-18T04:36:50.587Z,0.00
2018-10-18T04:37:50.564Z,0.00
2018-10-18T04:38:50.552Z,0.00
2018-10-18T04:39:50.604Z,0.00
2018-10-18T04:40:50.536Z,0.00
2018-10-18T04:41:50.520Z,0.00
2018-10-18T04:42:50.507Z,0.00
2018-10-18T04:43:50.502Z,0.00
2018-10-18T04:44:50.495Z,0.00
2018-10-18T04:45:50.470Z,0.00
2018-10-18T04:46:50.460Z,0.00
2018-10-18T04:47:50.639Z,0.00
2018-10-18T04:48:50.477Z,0.00
2018-10-18T04:49:50.438Z,0.00
2018-10-18T04:50:50.418Z,0.00
2018-10-18T04:51:50.406Z,0.00
2018-10-18T04:52:50.395Z,0.00
2018-10-18T04:53:50.390Z,0.00
2018-10-18T04:54:50.383Z,0.00
2018-10-18T04:55:50.357Z,0.00
2018-10-18T04:56:50.383Z,0.00
2018-10-18T04:57:50.333Z,0.00
2018-10-18T04:58:50.322Z,0.00
2018-10-18T04:59:50.327Z,0.00
2018-10-18T05:00:50.302Z,0.00
2018-10-18T05:01:50.287Z,0.00
2018-10-18T05:02:50.418Z,0.00
2018-10-18T05:03:50.264Z,0.00
2018-10-18T05:04:50.298Z,0.00
2018-10-18T05:05:50.240Z,0.00
2018-10-18T05:06:50.228Z,0.00
2018-10-18T05:07:50.219Z,0.00
2018-10-18T05:08:50.217Z,0.00
2018-10-18T05:09:50.196Z,0.00
2018-10-18T05:10:50.200Z,0.00
2018-10-18T05:11:50.175Z,0.00
2018-10-18T05:12:50.161Z,0.00
2018-10-18T05:13:50.149Z,0.00
2018-10-18T05:14:50.141Z,0.00
2018-10-18T05:15:50.148Z,0.00
2018-10-18T05:16:50.116Z,0.00
2018-10-18T05:17:50.106Z,0.00
2018-10-18T05:18:50.095Z,0.00
2018-10-18T05:19:50.083Z,0.00
2018-10-18T05:20:50.090Z,0.00
2018-10-18T05:21:50.062Z,0.00
2018-10-18T05:22:50.068Z,0.00
2018-10-18T05:23:50.050Z,0.00
2018-10-18T05:24:50.038Z,0.00
2018-10-18T05:25:50.030Z,0.00
2018-10-18T05:26:50.005Z,4.00
2018-10-18T05:27:50.013Z,4.00
2018-10-18T05:28:49.983Z,0.00
2018-10-18T05:29:49.975Z,0.00
2018-10-18T05:30:49.972Z,4.00
2018-10-18T05:31:50.094Z,0.00
2018-10-18T05:32:49.942Z,4.00
2018-10-18T05:33:49.932Z,4.00
2018-10-18T05:34:49.922Z,4.00
2018-10-18T05:35:49.919Z,8.00
2018-10-18T05:36:49.895Z,8.00
2018-10-18T05:37:50.069Z,8.00
2018-10-18T05:38:49.899Z,8.00
2018-10-18T05:39:49.862Z,12.00
2018-10-18T05:40:49.858Z,12.00
2018-10-18T05:41:49.833Z,12.00
2018-10-18T05:42:49.822Z,16.00
2018-10-18T05:43:49.814Z,20.00
2018-10-18T05:44:49.804Z,24.00
2018-10-18T05:45:49.801Z,24.00
2018-10-18T05:46:49.873Z,28.00
2018-10-18T05:47:49.763Z,28.00
2018-10-18T05:48:49.754Z,32.00
2018-10-18T05:49:49.742Z,40.00
2018-10-18T05:50:49.746Z,40.00
2018-10-18T05:51:49.718Z,44.00
2018-10-18T05:54:34.667Z,56.00
2018-10-18T05:54:58.492Z,56.00
2018-10-18T05:58:16.083Z,72.00
2018-10-18T05:59:15.816Z,76.00
2018-10-18T06:00:15.897Z,88.00
2018-10-18T06:02:24.535Z,100.00
2018-10-18T06:03:24.505Z,108.00
2018-10-18T06:04:24.499Z,112.00
2018-10-18T06:05:24.492Z,120.00
2018-10-18T06:06:24.466Z,132.00
2018-10-18T06:07:24.467Z,140.00
2018-10-18T06:08:24.444Z,144.00
2018-10-18T06:09:24.445Z,152.00
2018-10-18T06:10:24.491Z,156.00
2018-10-18T06:11:24.408Z,160.00
2018-10-18T06:12:24.400Z,164.00
2018-10-18T06:13:24.397Z,168.00
2018-10-18T06:15:45.367Z,180.00
2018-10-18T06:16:33.086Z,184.00
2018-10-18T06:17:33.075Z,188.00
2018-10-18T06:18:33.057Z,200.00
2018-10-18T06:19:33.048Z,200.00
2018-10-18T06:20:33.038Z,204.00
2018-10-18T06:21:33.045Z,208.00
2018-10-18T06:22:33.042Z,216.00
2018-10-18T06:23:33.026Z,224.00
2018-10-18T06:24:32.998Z,236.00
2018-10-18T06:25:32.980Z,240.00
2018-10-18T06:26:32.994Z,248.00
2018-10-18T06:27:32.966Z,252.00
2018-10-18T06:28:32.944Z,264.00
2018-10-18T06:29:32.955Z,268.00
2018-10-18T06:30:32.935Z,272.00
2018-10-18T06:31:32.930Z,284.00
2018-10-18T06:32:32.907Z,288.00
2018-10-18T06:33:32.898Z,296.00
2018-10-18T06:34:32.889Z,308.00
2018-10-18T06:35:32.869Z,320.00
2018-10-18T06:36:32.875Z,332.00
2018-10-18T06:37:32.851Z,344.00
2018-10-18T06:38:32.838Z,364.00
2018-10-18T06:39:32.827Z,380.00
2018-10-18T06:40:32.833Z,404.00
2018-10-18T06:41:32.820Z,428.00
2018-10-18T06:44:50.516Z,484.00
2018-10-18T06:45:50.489Z,504.00
2018-10-18T06:46:50.562Z,512.00
2018-10-18T06:47:50.626Z,520.00
2018-10-18T06:51:08.186Z,568.00
2018-10-18T06:52:08.142Z,588.00
2018-10-18T06:53:08.131Z,592.00
2018-10-18T06:54:08.131Z,608.00
2018-10-18T06:55:08.167Z,620.00
2018-10-18T06:56:08.118Z,636.00
2018-10-18T06:57:08.094Z,664.00
2018-10-18T06:58:08.073Z,692.00
2018-10-18T07:00:32.099Z,736.00
2018-10-18T07:01:16.794Z,752.00
2018-10-18T07:02:16.762Z,768.00
2018-10-18T07:03:16.754Z,784.00
2018-10-18T07:04:16.756Z,796.00
2018-10-18T07:05:16.728Z,812.00
2018-10-18T07:06:16.867Z,828.00
2018-10-18T07:07:16.704Z,840.00
2018-10-18T07:10:34.404Z,852.00
2018-10-18T07:11:34.404Z,864.00
2018-10-18T07:12:34.377Z,876.00
2018-10-18T07:13:34.355Z,892.00
2018-10-18T07:14:34.344Z,900.00
2018-10-18T07:15:34.333Z,904.00
2018-10-18T07:16:34.380Z,904.00
2018-10-18T07:17:34.366Z,912.00
2018-10-18T07:18:34.302Z,912.00
2018-10-18T07:19:34.286Z,896.00
2018-10-18T07:20:34.279Z,888.00
2018-10-18T07:21:34.274Z,896.00
2018-10-18T07:22:34.271Z,896.00
2018-10-18T07:23:34.240Z,904.00
2018-10-18T07:24:34.226Z,904.00
2018-10-18T07:26:42.963Z,908.00
2018-10-18T07:27:42.945Z,880.00
2018-10-18T07:28:42.942Z,908.00
2018-10-18T07:30:51.892Z,924.00
2018-10-18T07:31:51.660Z,956.00
2018-10-18T07:32:51.628Z,980.00
2018-10-18T07:33:51.614Z,988.00
2018-10-18T07:34:51.606Z,1016.00
2018-10-18T07:35:51.618Z,1008.00
2018-10-18T07:36:51.596Z,1020.00
2018-10-18T07:37:51.571Z,1032.00
2018-10-18T07:38:51.566Z,1064.00
2018-10-18T07:39:51.553Z,1072.00
2018-10-18T07:40:51.535Z,1068.00
2018-10-18T07:44:09.058Z,1100.00
2018-10-18T07:45:08.929Z,1160.00
2018-10-18T07:46:08.921Z,1184.00
2018-10-18T07:47:08.942Z,1156.00
2018-10-18T07:48:09.052Z,1148.00
2018-10-18T07:49:08.884Z,1152.00
2018-10-18T07:50:08.876Z,1180.00
2018-10-18T07:52:44.374Z,1208.00
2018-10-18T07:53:17.772Z,1260.00
2018-10-18T07:56:34.024Z,1292.00
2018-10-18T07:59:50.460Z,1324.00
2018-10-18T08:00:50.567Z,1352.00
2018-10-18T08:03:19.647Z,1288.00
2018-10-18T08:47:49.150Z,1752.00
2018-10-18T08:48:49.159Z,1712.00
2018-10-18T08:49:49.272Z,1664.00
2018-10-18T08:50:49.117Z,1648.00
2018-10-18T08:51:49.095Z,1652.00
2018-10-18T08:52:49.092Z,1632.00
2018-10-18T08:53:49.086Z,1632.00
2018-10-18T08:57:06.016Z,1668.00
2018-10-18T08:58:06.022Z,1704.00
2018-10-18T09:00:50.562Z,2020.00
2018-10-18T09:01:14.235Z,2236.00
2018-10-18T09:02:14.186Z,2676.00
2018-10-18T09:03:14.199Z,2440.00
2018-10-18T09:04:14.166Z,2360.00
2018-10-18T09:05:14.162Z,2364.00
2018-10-18T09:07:38.103Z,2008.00
2018-10-18T09:08:22.873Z,1932.00
2018-10-18T09:09:22.853Z,2344.00
2018-10-18T09:10:22.843Z,2792.00
2018-10-18T09:11:22.843Z,3348.00
2018-10-18T09:12:22.826Z,2556.00
2018-10-18T09:13:22.832Z,2256.00
2018-10-18T09:14:22.814Z,2240.00
2018-10-18T09:15:22.789Z,2380.00
2018-10-18T09:16:22.790Z,2464.00
2018-10-18T09:17:22.767Z,2364.00
2018-10-18T09:18:22.788Z,2328.00
2018-10-18T09:19:22.743Z,2476.00
2018-10-18T09:20:22.735Z,2268.00
2018-10-18T09:21:22.718Z,2088.00
2018-10-18T09:22:22.726Z,1964.00
2018-10-18T09:23:22.699Z,2012.00
2018-10-18T09:24:22.956Z,1924.00
2018-10-18T09:25:22.683Z,2400.00
2018-10-18T09:26:22.663Z,2564.00
2018-10-18T09:28:35.770Z,3020.00
2018-10-18T09:29:31.365Z,3588.00
2018-10-18T09:32:01.053Z,2948.00
2018-10-18T09:51:02.756Z,1872.00
2018-10-18T09:52:02.727Z,1896.00
2018-10-18T09:53:02.780Z,1924.00
2018-10-18T09:55:44.270Z,2336.00
2018-10-18T09:56:11.517Z,2136.00
2018-10-18T09:57:11.383Z,1944.00
2018-10-18T09:58:11.391Z,1948.00
2018-10-18T10:00:19.600Z,1912.00
2018-10-18T10:01:19.565Z,1912.00
2018-10-18T10:04:35.999Z,1928.00
2018-10-18T10:05:35.996Z,1988.00
2018-10-18T10:06:35.973Z,1984.00
2018-10-18T10:07:35.962Z,2052.00
2018-10-18T10:10:05.653Z,2068.00
2018-10-18T10:38:07.741Z,2276.00
2018-10-18T10:39:07.719Z,2232.00
2018-10-18T10:40:07.807Z,2368.00
2018-10-18T10:41:07.751Z,2948.00
2018-10-18T10:42:07.763Z,4188.00
2018-10-18T10:43:07.668Z,2288.00
2018-10-18T10:44:07.779Z,2296.00
2018-10-18T10:45:07.737Z,2412.00
2018-10-18T10:46:07.664Z,3788.00
2018-10-18T10:47:07.624Z,2900.00
2018-10-18T10:48:07.678Z,2648.00
2018-10-18T10:49:07.651Z,2444.00
2018-10-18T10:50:07.689Z,2348.00
2018-10-18T10:51:07.640Z,2620.00
2018-10-18T10:52:07.636Z,3412.00
2018-10-18T10:53:07.554Z,6368.00
2018-10-18T10:54:07.628Z,7532.00
2018-10-18T10:55:07.551Z,4172.00
2018-10-18T10:56:07.583Z,2396.00
2018-10-18T10:57:07.599Z,2284.00
2018-10-18T10:58:07.585Z,2252.00
2018-10-18T10:59:07.591Z,2252.00
2018-10-18T11:00:07.523Z,2268.00
2018-10-18T11:01:07.466Z,2276.00
2018-10-18T11:02:07.552Z,2312.00
2018-10-18T11:03:07.530Z,2288.00
2018-10-18T11:04:07.432Z,2312.00
2018-10-18T11:05:07.435Z,2296.00
2018-10-18T11:06:07.516Z,2320.00
2018-10-18T11:07:07.400Z,2328.00
2018-10-18T11:08:07.446Z,2304.00
2018-10-18T11:09:07.492Z,2316.00
2018-10-18T11:10:07.381Z,3256.00
2018-10-18T11:11:07.364Z,5684.00
2018-10-18T11:12:07.447Z,2344.00
2018-10-18T11:13:07.334Z,2292.00
2018-10-18T11:14:07.359Z,2288.00
2018-10-18T11:15:07.398Z,2276.00
2018-10-18T11:16:07.300Z,2292.00
2018-10-18T11:17:07.334Z,2272.00
2018-10-18T11:18:07.345Z,2304.00
2018-10-18T11:19:07.269Z,2332.00
2018-10-18T11:20:07.372Z,2340.00
2018-10-18T11:21:07.405Z,2332.00
2018-10-18T11:22:07.233Z,2372.00
2018-10-18T11:23:07.226Z,2420.00
2018-10-18T11:25:25.190Z,2604.00
2018-10-18T11:26:16.023Z,3608.00
2018-10-18T11:27:16.137Z,2352.00
2018-10-18T11:29:45.106Z,2216.00
2018-10-18T11:30:24.096Z,2124.00
2018-10-18T11:31:24.076Z,2252.00
2018-10-18T11:32:24.060Z,2372.00
2018-10-18T11:33:24.051Z,2904.00
2018-10-18T11:34:24.140Z,2508.00
2018-10-18T11:35:24.039Z,2656.00
2018-10-18T11:36:24.019Z,3096.00
2018-10-18T11:37:24.005Z,2600.00
2018-10-18T11:38:24.000Z,6104.00
2018-10-18T11:39:23.988Z,3180.00
2018-10-18T11:40:23.997Z,2824.00
2018-10-18T11:41:23.961Z,2664.00
2018-10-18T11:42:23.965Z,2524.00
2018-10-18T11:43:23.945Z,2216.00
2018-10-18T11:44:23.926Z,2184.00
2018-10-18T11:45:23.921Z,2136.00
2018-10-18T11:46:23.925Z,2124.00
2018-10-18T11:47:23.891Z,2148.00
2018-10-18T11:48:23.886Z,2152.00
2018-10-18T11:49:23.868Z,2160.00
2018-10-18T11:50:23.857Z,2236.00
2018-10-18T11:51:23.868Z,2240.00
2018-10-18T11:52:23.835Z,2188.00
2018-10-18T11:53:23.826Z,2144.00
2018-10-18T11:54:23.811Z,2148.00
2018-10-18T11:55:23.825Z,2132.00
2018-10-18T11:56:23.809Z,2128.00
2018-10-18T11:57:23.791Z,2148.00
2018-10-18T11:58:23.776Z,2228.00
2018-10-18T11:59:23.760Z,2144.00
2018-10-18T12:00:23.750Z,2120.00
2018-10-18T12:01:23.799Z,2128.00
2018-10-18T12:02:23.741Z,2192.00
2018-10-18T12:03:23.710Z,2316.00
2018-10-18T12:04:23.699Z,2128.00
2018-10-18T12:05:23.687Z,2204.00
2018-10-18T12:06:23.689Z,2076.00
2018-10-18T12:07:23.667Z,2192.00
2018-10-18T12:08:23.658Z,2292.00
2018-10-18T12:09:23.642Z,2256.00
2018-10-18T12:10:23.631Z,2148.00
2018-10-18T12:11:23.634Z,2144.00
2018-10-18T12:12:23.610Z,2100.00
2018-10-18T12:13:23.598Z,2108.00
2018-10-18T12:14:23.601Z,2116.00
2018-10-18T12:15:23.577Z,2272.00
2018-10-18T12:16:23.605Z,2240.00
2018-10-18T12:17:23.555Z,2192.00
2018-10-18T12:18:23.544Z,2200.00
2018-10-18T12:19:23.534Z,2048.00
2018-10-18T12:20:23.524Z,2164.00
2018-10-18T12:21:23.536Z,2348.00
2018-10-18T12:22:23.503Z,2388.00
2018-10-18T12:23:23.488Z,2300.00
2018-10-18T12:24:23.475Z,2400.00
2018-10-18T12:25:23.470Z,2092.00
2018-10-18T12:26:23.453Z,2020.00
2018-10-18T12:27:23.456Z,2852.00
2018-10-18T12:28:23.432Z,2208.00
2018-10-18T12:29:23.420Z,2064.00
2018-10-18T12:30:23.413Z,2496.00
2018-10-18T12:31:23.406Z,3192.00
2018-10-18T12:32:23.404Z,4688.00
2018-10-18T12:33:23.374Z,4656.00
2018-10-18T12:34:23.363Z,4568.00
2018-10-18T12:35:23.354Z,4724.00
2018-10-18T12:36:23.341Z,4312.00
2018-10-18T12:37:23.350Z,4260.00
2018-10-18T12:38:23.320Z,3684.00
2018-10-18T12:39:23.391Z,2912.00
2018-10-18T12:40:23.337Z,2572.00
2018-10-18T12:41:23.552Z,2424.00
2018-10-18T12:42:23.299Z,2292.00
2018-10-18T12:43:23.295Z,2136.00
2018-10-18T12:44:23.254Z,2132.00
2018-10-18T12:45:23.241Z,2072.00
2018-10-18T12:46:23.229Z,2032.00
2018-10-18T12:47:23.233Z,2036.00
2018-10-18T12:48:23.372Z,2052.00
2018-10-18T12:49:23.207Z,2008.00
2018-10-18T12:50:23.186Z,2008.00
2018-10-18T12:51:23.177Z,2152.00
2018-10-18T12:52:23.175Z,2228.00
2018-10-18T12:53:23.151Z,2168.00
2018-10-18T12:54:23.185Z,2076.00
2018-10-18T12:55:23.135Z,2072.00
2018-10-18T12:56:23.122Z,2064.00
2018-10-18T12:57:23.119Z,2008.00
2018-10-18T12:58:23.098Z,2000.00
2018-10-18T12:59:23.085Z,1976.00
2018-10-18T13:00:23.075Z,2008.00
2018-10-18T13:01:23.068Z,2000.00
2018-10-18T13:02:23.086Z,2008.00
2018-10-18T13:03:23.040Z,2032.00
2018-10-18T13:04:23.031Z,2188.00
2018-10-18T13:05:23.017Z,2048.00
2018-10-18T13:06:23.009Z,2040.00
2018-10-18T13:07:23.008Z,2008.00
2018-10-18T13:08:22.987Z,2020.00
2018-10-18T13:09:22.994Z,1960.00
2018-10-18T13:10:22.961Z,2024.00
2018-10-18T13:11:22.950Z,1896.00
2018-10-18T13:12:23.221Z,1848.00
2018-10-18T13:13:22.942Z,1856.00
2018-10-18T13:14:22.918Z,1764.00
2018-10-18T13:15:22.909Z,1772.00
2018-10-18T13:16:22.897Z,1796.00
2018-10-18T13:17:22.882Z,1784.00
2018-10-18T13:18:22.881Z,1800.00
2018-10-18T13:19:22.858Z,1756.00
2018-10-18T13:20:22.847Z,1772.00
2018-10-18T13:21:22.837Z,1804.00
2018-10-18T13:22:22.854Z,1792.00
2018-10-18T13:23:22.823Z,1784.00
2018-10-18T13:24:22.801Z,1804.00
2018-10-18T13:25:22.880Z,1832.00
2018-10-18T13:26:22.782Z,1788.00
2018-10-18T13:27:22.768Z,1880.00
2018-10-18T13:28:22.778Z,1840.00
2018-10-18T13:29:22.752Z,1800.00
2018-10-18T13:30:22.737Z,1880.00
2018-10-18T13:31:22.721Z,1776.00
2018-10-18T13:32:22.712Z,1796.00
2018-10-18T13:33:22.713Z,1784.00
2018-10-18T13:34:22.689Z,1812.00
2018-10-18T13:35:22.675Z,1724.00
2018-10-18T13:36:22.665Z,1756.00
2018-10-18T13:37:22.657Z,1740.00
2018-10-18T13:38:22.650Z,1680.00
2018-10-18T13:39:22.628Z,1740.00
2018-10-18T13:40:22.630Z,1744.00
2018-10-18T13:41:23.383Z,1752.00
2018-10-18T13:42:22.595Z,1728.00
2018-10-18T13:43:22.595Z,1788.00
2018-10-18T13:44:22.570Z,1680.00
2018-10-18T13:45:22.561Z,1712.00
2018-10-18T13:46:22.598Z,1796.00
2018-10-18T13:47:22.547Z,1692.00
2018-10-18T13:48:22.564Z,1692.00
2018-10-18T13:49:22.536Z,1828.00
2018-10-18T13:50:22.504Z,1716.00
2018-10-18T13:51:22.492Z,1684.00
2018-10-18T13:52:22.481Z,1656.00
2018-10-18T13:53:22.480Z,1696.00
2018-10-18T13:54:22.483Z,1652.00
2018-10-18T13:55:22.464Z,1612.00
2018-10-18T13:56:22.462Z,1612.00
2018-10-18T13:57:22.421Z,1616.00
2018-10-18T13:58:22.428Z,1588.00
2018-10-18T13:59:22.500Z,1632.00
2018-10-18T14:00:22.475Z,1604.00
2018-10-18T14:01:22.377Z,1564.00
2018-10-18T14:02:22.375Z,1548.00
2018-10-18T14:03:22.447Z,1588.00
2018-10-18T14:04:22.343Z,1556.00
2018-10-18T14:05:22.389Z,1560.00
2018-10-18T14:06:22.322Z,1576.00
2018-10-18T14:07:22.315Z,1556.00
2018-10-18T14:08:22.457Z,1588.00
2018-10-18T14:09:22.285Z,1568.00
2018-10-18T14:10:22.276Z,1576.00
2018-10-18T14:11:22.261Z,1524.00
2018-10-18T14:12:22.248Z,1444.00
2018-10-18T14:13:22.251Z,1452.00
2018-10-18T14:14:22.226Z,1428.00
2018-10-18T14:15:22.220Z,1428.00
2018-10-18T14:16:22.213Z,1404.00
2018-10-18T14:17:22.409Z,1376.00
2018-10-18T14:18:22.188Z,1436.00
2018-10-18T14:19:22.168Z,1328.00
2018-10-18T14:20:22.242Z,1344.00
2018-10-18T14:21:22.150Z,1324.00
2018-10-18T14:22:22.139Z,1308.00
2018-10-18T14:23:22.133Z,1264.00
2018-10-18T14:24:22.113Z,1324.00
2018-10-18T14:25:22.101Z,1260.00
2018-10-18T14:26:22.265Z,1212.00
2018-10-18T14:27:22.077Z,1264.00
2018-10-18T14:28:22.403Z,1240.00
2018-10-18T14:29:22.054Z,1160.00
2018-10-18T14:30:22.193Z,1160.00
2018-10-18T14:31:22.032Z,1184.00
2018-10-18T14:32:22.020Z,1152.00
2018-10-18T14:33:22.042Z,1200.00
2018-10-18T14:34:22.000Z,1176.00
2018-10-18T14:35:21.986Z,1160.00
2018-10-18T14:36:21.977Z,1164.00
2018-10-18T14:37:21.964Z,1152.00
2018-10-18T14:38:22.169Z,1128.00
2018-10-18T14:39:21.941Z,1124.00
2018-10-18T14:40:21.927Z,1104.00
2018-10-18T14:41:21.917Z,1152.00
2018-10-18T14:42:21.907Z,1096.00
2018-10-18T14:43:21.906Z,1076.00
2018-10-18T14:44:22.028Z,1064.00
2018-10-18T14:45:21.869Z,1092.00
2018-10-18T14:46:21.861Z,1088.00
2018-10-18T14:47:21.895Z,1040.00
2018-10-18T14:48:21.838Z,1020.00
2018-10-18T14:49:21.841Z,1020.00
2018-10-18T14:50:21.933Z,944.00
2018-10-18T14:51:21.801Z,940.00
2018-10-18T14:52:21.968Z,936.00
2018-10-18T14:53:21.779Z,952.00
2018-10-18T14:54:21.781Z,900.00
2018-10-18T14:55:21.756Z,888.00
2018-10-18T14:56:21.754Z,864.00
2018-10-18T14:57:21.735Z,904.00
2018-10-18T15:00:02.703Z,900.00
2018-10-18T15:00:29.933Z,892.00
2018-10-18T15:01:29.920Z,884.00
2018-10-18T15:02:29.910Z,844.00
2018-10-18T15:03:29.908Z,820.00
2018-10-18T15:04:29.971Z,824.00
2018-10-18T15:05:29.875Z,832.00
2018-10-18T15:06:29.883Z,804.00
2018-10-18T15:07:29.854Z,808.00
2018-10-18T15:08:29.842Z,784.00
2018-10-18T15:09:29.842Z,780.00
2018-10-18T15:10:29.828Z,788.00
2018-10-18T15:11:29.814Z,792.00
2018-10-18T15:12:29.844Z,776.00